Venray, Netherlands
Current Conditions -  °F | °C
As of 1:50 PM on Thursday 30 Oct 2014 (Local Time) from EDLV Reporting Station
Broken Clouds Broken Clouds  
Wind Chill: 59°   Ceiling: 600
Heat Index: 59°   Visibility: 4mi
Dew Point: 59°   Wind: 7mph
Humidity: 100%   Direction: 150°SSE
Pressure: 30.18"   Gusts: NA
Location:  51.53°N, 5.98°E
Report Text: EDLV 301250Z 15006KT 120V180 6000 BKN006 15/15 Q1022
Loading
Personal Weather Stations






























Interactive Weather Map
Tropical Storm Tracking
New forecast layout! Learn more

10-Day Weather Forecast

Advertisements
Track Severe Weather on mobile